createdAt,value
2022-12-18T00:00:08.990Z,101081.06
2022-12-18T00:02:41.480Z,101082.09
2022-12-18T00:05:09.720Z,101083.81
2022-12-18T00:07:37.123Z,101070.63
2022-12-18T00:10:05.990Z,101078.19
2022-12-18T00:12:32.793Z,101074.28
2022-12-18T00:14:59.682Z,101076.38
2022-12-18T00:17:27.876Z,101078.03
2022-12-18T00:19:55.061Z,101081.53
2022-12-18T00:22:22.102Z,101089.28
2022-12-18T00:24:48.935Z,101080.44
2022-12-18T00:27:15.757Z,101087.44
2022-12-18T00:29:42.846Z,101071.47
2022-12-18T00:32:09.613Z,101080.19
2022-12-18T00:34:38.126Z,101078.28
2022-12-18T00:37:05.338Z,101071.38
2022-12-18T00:39:32.167Z,101072.06
2022-12-18T00:41:59.890Z,101081.09
2022-12-18T00:44:26.810Z,101083.00
2022-12-18T00:46:53.958Z,101071.13
2022-12-18T00:49:21.662Z,101075.66
2022-12-18T00:51:49.950Z,101081.03
2022-12-18T00:54:17.700Z,101082.72
2022-12-18T00:56:49.353Z,101085.03
2022-12-18T00:59:18.638Z,101081.34
2022-12-18T01:01:46.716Z,101088.31
2022-12-18T01:04:14.764Z,101091.44
2022-12-18T01:06:43.324Z,101092.03
2022-12-18T01:09:12.981Z,101088.75
2022-12-18T01:11:40.436Z,101093.31
2022-12-18T01:14:07.374Z,101084.88
2022-12-18T01:16:34.591Z,101091.13
2022-12-18T01:19:01.387Z,101098.41
2022-12-18T01:21:28.742Z,101089.81
2022-12-18T01:23:57.744Z,101088.91
2022-12-18T01:26:26.859Z,101098.28
2022-12-18T01:28:55.387Z,101107.56
2022-12-18T01:31:27.671Z,101112.00
2022-12-18T01:33:56.238Z,101108.38
2022-12-18T01:36:26.189Z,101101.56
2022-12-18T01:38:54.245Z,101099.53
2022-12-18T01:41:25.323Z,101102.72
2022-12-18T01:43:57.041Z,101099.78
2022-12-18T01:46:28.330Z,101096.09
2022-12-18T01:49:00.845Z,101102.44
2022-12-18T01:51:29.393Z,101100.81
2022-12-18T01:53:58.280Z,101093.28
2022-12-18T01:56:25.201Z,101098.94
2022-12-18T01:59:03.124Z,101099.38
2022-12-18T02:01:33.862Z,101099.09
2022-12-18T02:04:21.811Z,101091.03
2022-12-18T02:06:58.180Z,101075.22
2022-12-18T02:09:36.739Z,101097.41
2022-12-18T02:12:14.536Z,101116.88
2022-12-18T02:14:52.255Z,101108.81
2022-12-18T02:17:23.224Z,101100.03
2022-12-18T02:20:13.937Z,101103.78
2022-12-18T02:23:01.766Z,101086.47
2022-12-18T02:26:01.254Z,101091.97
2022-12-18T02:28:37.145Z,101097.00
2022-12-18T02:31:15.304Z,101097.13
2022-12-18T02:33:45.710Z,101106.38
2022-12-18T02:36:17.177Z,101100.50
2022-12-18T02:38:47.648Z,101105.34
2022-12-18T02:41:19.697Z,101120.94
2022-12-18T02:43:57.918Z,101126.13
2022-12-18T02:46:33.180Z,101116.63
2022-12-18T02:49:16.996Z,101128.50
2022-12-18T02:51:56.605Z,101130.13
2022-12-18T02:54:46.053Z,101135.25
2022-12-18T02:57:24.989Z,101124.38
2022-12-18T03:00:02.551Z,101118.34
2022-12-18T03:02:40.496Z,101118.06
2022-12-18T03:05:17.310Z,101114.06
2022-12-18T03:07:56.229Z,101121.84
2022-12-18T03:10:30.770Z,101106.13
2022-12-18T03:13:09.506Z,101104.19
2022-12-18T03:15:43.378Z,101104.19
2022-12-18T03:18:20.678Z,101110.84
2022-12-18T03:20:52.851Z,101108.47
2022-12-18T03:23:29.307Z,101114.13
2022-12-18T03:26:07.690Z,101120.06
2022-12-18T03:28:48.213Z,101113.03
2022-12-18T03:31:17.356Z,101119.41
2022-12-18T03:33:52.977Z,101110.38
2022-12-18T03:36:26.045Z,101127.38
2022-12-18T03:38:53.689Z,101124.41
2022-12-18T03:41:33.592Z,101126.66
2022-12-18T03:44:30.926Z,101119.50
2022-12-18T03:47:11.019Z,101121.59
2022-12-18T03:49:48.833Z,101131.84
2022-12-18T03:52:28.669Z,101126.06
2022-12-18T03:55:01.028Z,101118.50
2022-12-18T03:57:33.379Z,101120.28
2022-12-18T04:00:12.538Z,101126.41
2022-12-18T04:02:57.975Z,101120.66
2022-12-18T04:05:38.180Z,101129.09
2022-12-18T04:08:06.477Z,101115.16
2022-12-18T04:10:38.064Z,101115.22
2022-12-18T04:13:05.435Z,101118.84
2022-12-18T04:15:37.720Z,101126.03
2022-12-18T04:18:08.752Z,101133.13
2022-12-18T04:20:42.049Z,101144.34
2022-12-18T04:23:09.410Z,101125.91
2022-12-18T04:25:38.468Z,101116.34
2022-12-18T04:28:09.649Z,101130.28
2022-12-18T04:30:39.827Z,101144.81
2022-12-18T04:33:13.078Z,101133.28
2022-12-18T04:35:40.760Z,101138.66
2022-12-18T04:38:09.193Z,101140.00
2022-12-18T04:40:36.613Z,101144.81
2022-12-18T04:43:06.634Z,101144.69
2022-12-18T04:45:34.448Z,101143.31
2022-12-18T04:48:03.491Z,101130.56
2022-12-18T04:50:31.204Z,101128.63
2022-12-18T04:52:58.504Z,101123.31
2022-12-18T04:55:25.433Z,101121.75
2022-12-18T04:57:52.423Z,101124.75
2022-12-18T05:00:19.852Z,101128.69
2022-12-18T05:02:46.959Z,101129.72
2022-12-18T05:05:15.432Z,101122.44
2022-12-18T05:07:42.249Z,101123.03
2022-12-18T05:10:10.434Z,101118.53
2022-12-18T05:12:37.333Z,101124.59
2022-12-18T05:15:05.531Z,101124.84
2022-12-18T05:17:32.670Z,101130.34
2022-12-18T05:19:59.409Z,101119.09
2022-12-18T05:22:27.763Z,101127.09
2022-12-18T05:24:54.621Z,101137.81
2022-12-18T05:27:21.652Z,101135.59
2022-12-18T05:29:48.412Z,101134.56
2022-12-18T05:32:16.195Z,101135.16
2022-12-18T05:34:42.968Z,101135.97
2022-12-18T05:37:10.021Z,101139.31
2022-12-18T05:39:38.078Z,101146.13
2022-12-18T05:42:05.184Z,101144.94
2022-12-18T05:44:33.168Z,101155.97
2022-12-18T05:46:59.928Z,101146.63
2022-12-18T05:49:27.522Z,101152.38
2022-12-18T05:51:54.327Z,101157.63
2022-12-18T05:54:21.226Z,101154.53
2022-12-18T05:56:49.523Z,101162.59
2022-12-18T05:59:16.380Z,101161.75
2022-12-18T06:01:43.304Z,101147.88
2022-12-18T06:04:10.135Z,101145.00
2022-12-18T06:06:37.060Z,101151.56
2022-12-18T06:09:04.667Z,101152.13
2022-12-18T06:11:31.888Z,101153.28
2022-12-18T06:14:00.833Z,101159.69
2022-12-18T06:16:29.238Z,101159.97
2022-12-18T06:18:57.858Z,101155.06
2022-12-18T06:21:24.749Z,101163.19
2022-12-18T06:23:51.767Z,101156.72
2022-12-18T06:26:21.079Z,101155.47
2022-12-18T06:28:51.530Z,101162.16
2022-12-18T06:31:19.651Z,101152.84
2022-12-18T06:33:46.694Z,101160.84
2022-12-18T06:36:14.537Z,101161.72
2022-12-18T06:38:43.898Z,101158.84
2022-12-18T06:41:14.012Z,101162.59
2022-12-18T06:43:41.226Z,101167.84
2022-12-18T06:46:10.348Z,101150.44
2022-12-18T06:48:39.049Z,101166.25
2022-12-18T06:51:06.131Z,101161.69
2022-12-18T06:53:34.634Z,101169.59
2022-12-18T06:56:07.861Z,101175.09
2022-12-18T06:58:36.914Z,101175.53
2022-12-18T07:01:07.137Z,101178.66
2022-12-18T07:03:34.091Z,101181.09
2022-12-18T07:06:03.016Z,101191.47
2022-12-18T07:08:30.287Z,101188.78
2022-12-18T07:10:57.248Z,101202.81
2022-12-18T07:13:24.391Z,101208.09
2022-12-18T07:15:51.473Z,101211.19
2022-12-18T07:18:18.281Z,101206.69
2022-12-18T07:20:45.026Z,101211.94
2022-12-18T07:23:14.469Z,101206.78
2022-12-18T07:25:41.357Z,101206.03
2022-12-18T07:28:10.604Z,101212.19
2022-12-18T07:30:41.363Z,101218.31
2022-12-18T07:33:08.901Z,101216.56
2022-12-18T07:35:35.598Z,101215.44
2022-12-18T07:38:02.518Z,101222.66
2022-12-18T07:40:31.006Z,101213.53
2022-12-18T07:42:57.910Z,101211.84
2022-12-18T07:45:24.968Z,101211.81
2022-12-18T07:47:52.244Z,101198.31
2022-12-18T07:50:19.270Z,101204.75
2022-12-18T07:52:46.245Z,101209.66
2022-12-18T07:55:13.012Z,101203.31
2022-12-18T07:57:50.431Z,101213.25
2022-12-18T08:00:18.876Z,101218.09
2022-12-18T08:02:45.838Z,101217.16
2022-12-18T08:05:13.058Z,101218.25
2022-12-18T08:07:40.321Z,101217.31
2022-12-18T08:10:08.689Z,101219.13
2022-12-18T08:12:35.942Z,101219.25
2022-12-18T08:15:05.005Z,101207.53
2022-12-18T08:17:33.043Z,101219.31
2022-12-18T08:19:59.800Z,101216.53
2022-12-18T08:22:26.893Z,101217.81
2022-12-18T08:24:53.994Z,101216.38
2022-12-18T08:27:28.771Z,101211.16
2022-12-18T08:29:56.417Z,101213.47
2022-12-18T08:32:25.439Z,101210.31
2022-12-18T08:34:52.356Z,101206.44
2022-12-18T08:37:19.303Z,101206.91
2022-12-18T08:39:46.125Z,101210.72
2022-12-18T08:42:13.170Z,101211.31
2022-12-18T08:44:40.164Z,101207.16
2022-12-18T08:47:08.062Z,101204.97
2022-12-18T08:49:36.617Z,101201.25
2022-12-18T08:52:04.334Z,101201.16
2022-12-18T08:54:31.261Z,101202.97
2022-12-18T08:56:58.083Z,101201.50
2022-12-18T08:59:24.891Z,101193.50
2022-12-18T09:01:54.259Z,101190.47
2022-12-18T09:04:21.172Z,101180.28
2022-12-18T09:06:50.516Z,101169.78
2022-12-18T09:09:17.634Z,101167.16
2022-12-18T09:11:44.461Z,101164.31
2022-12-18T09:14:11.566Z,101167.53
2022-12-18T09:16:40.103Z,101174.25
2022-12-18T09:19:07.478Z,101163.50
2022-12-18T09:21:37.101Z,101157.22
2022-12-18T09:24:08.011Z,101164.19
2022-12-18T09:26:36.598Z,101171.31
2022-12-18T09:29:04.015Z,101174.00
2022-12-18T09:31:31.039Z,101164.44
2022-12-18T09:33:58.231Z,101159.34
2022-12-18T09:36:25.123Z,101158.66
2022-12-18T09:38:52.166Z,101164.00
2022-12-18T09:41:41.700Z,101164.06
2022-12-18T09:44:21.282Z,101166.34
2022-12-18T09:47:01.461Z,101164.41
2022-12-18T09:49:34.195Z,101157.72
2022-12-18T09:52:09.475Z,101147.66
2022-12-18T09:54:41.302Z,101151.72
2022-12-18T09:57:16.051Z,101161.94
2022-12-18T09:59:47.458Z,101165.84
2022-12-18T10:02:18.142Z,101176.78
2022-12-18T10:04:56.064Z,101174.31
2022-12-18T10:07:41.257Z,101179.31
2022-12-18T10:10:20.673Z,101166.44
2022-12-18T10:13:04.791Z,101157.53
2022-12-18T10:15:40.980Z,101163.94
2022-12-18T10:18:30.283Z,101178.06
2022-12-18T10:21:07.873Z,101181.09
2022-12-18T10:23:52.741Z,101170.13
2022-12-18T10:26:19.809Z,101177.09
2022-12-18T10:28:51.992Z,101165.66
2022-12-18T10:31:24.890Z,101160.34
2022-12-18T10:33:54.047Z,101159.22
2022-12-18T10:36:21.842Z,101151.34
2022-12-18T10:38:50.643Z,101151.38
2022-12-18T10:41:29.360Z,101161.19
2022-12-18T10:46:56.383Z,101159.25
2022-12-18T10:49:27.813Z,101167.38
2022-12-18T10:52:13.584Z,101158.47
2022-12-18T10:54:41.324Z,101147.03
2022-12-18T10:57:35.208Z,101152.63
2022-12-18T11:00:26.253Z,101148.41
2022-12-18T11:02:55.295Z,101138.34
2022-12-18T11:05:30.072Z,101139.50
2022-12-18T11:07:58.413Z,101135.00
2022-12-18T11:10:32.388Z,101127.25
2022-12-18T11:13:13.363Z,101131.13
2022-12-18T11:15:42.432Z,101128.03
2022-12-18T11:18:21.196Z,101128.38
2022-12-18T11:20:58.480Z,101143.00
2022-12-18T11:23:26.944Z,101126.03
2022-12-18T11:25:58.606Z,101127.34
2022-12-18T11:28:47.301Z,101117.16
2022-12-18T11:31:25.521Z,101114.91
2022-12-18T11:34:27.927Z,101108.53
2022-12-18T11:36:53.358Z,101107.94
2022-12-18T11:39:32.487Z,101108.69
2022-12-18T11:42:13.320Z,101109.44
2022-12-18T11:44:49.430Z,101114.97
2022-12-18T11:47:39.766Z,101115.56
2022-12-18T11:50:22.505Z,101105.59
2022-12-18T11:52:55.643Z,101102.06
2022-12-18T11:55:40.757Z,101112.38
2022-12-18T11:58:31.561Z,101109.13
2022-12-18T12:01:16.406Z,101097.97
2022-12-18T12:04:20.458Z,101089.78
2022-12-18T12:07:05.699Z,101078.69
2022-12-18T12:09:47.244Z,101075.00
2022-12-18T12:12:37.566Z,101072.97
2022-12-18T12:15:18.195Z,101068.25
2022-12-18T12:17:57.968Z,101075.88
2022-12-18T12:20:46.846Z,101074.81
2022-12-18T12:23:31.157Z,101079.84
2022-12-18T12:26:05.224Z,101075.16
2022-12-18T12:28:57.202Z,101076.31
2022-12-18T12:31:46.526Z,101072.59
2022-12-18T12:34:22.904Z,101066.59
2022-12-18T12:37:11.883Z,101069.03
2022-12-18T12:39:45.295Z,101065.81
2022-12-18T12:42:32.036Z,101057.81
2022-12-18T12:45:06.686Z,101067.59
2022-12-18T12:47:43.177Z,101066.56
2022-12-18T12:50:19.942Z,101072.19
2022-12-18T12:52:55.388Z,101080.88
2022-12-18T12:55:27.664Z,101077.66
2022-12-18T12:58:09.279Z,101083.09
2022-12-18T13:00:48.906Z,101089.88
2022-12-18T13:03:40.757Z,101078.66
2022-12-18T13:06:18.311Z,101077.25
2022-12-18T13:09:00.745Z,101078.09
2022-12-18T13:11:44.701Z,101078.16
2022-12-18T13:14:24.690Z,101072.47
2022-12-18T13:16:52.572Z,101068.38
2022-12-18T13:19:24.697Z,101081.91
2022-12-18T13:21:55.855Z,101073.56
2022-12-18T13:24:28.785Z,101065.44
2022-12-18T13:26:57.638Z,101064.72
2022-12-18T13:29:43.746Z,101057.16
2022-12-18T13:32:23.980Z,101062.56
2022-12-18T13:35:40.014Z,101066.09
2022-12-18T13:38:24.005Z,101052.59
2022-12-18T13:40:57.235Z,101059.88
2022-12-18T13:43:33.272Z,101052.44
2022-12-18T13:46:04.295Z,101052.38
2022-12-18T13:48:37.141Z,101047.84
2022-12-18T13:51:08.382Z,101043.31
2022-12-18T13:53:44.889Z,101041.03
2022-12-18T13:56:17.506Z,101035.47
2022-12-18T13:58:46.352Z,101034.78
2022-12-18T14:01:23.844Z,101039.97
2022-12-18T14:03:51.241Z,101030.28
2022-12-18T14:06:18.510Z,101038.47
2022-12-18T14:08:47.263Z,101041.00
2022-12-18T14:11:23.890Z,101040.47
2022-12-18T14:13:54.764Z,101043.78
2022-12-18T14:16:23.044Z,101040.06
2022-12-18T14:18:55.196Z,101038.47
2022-12-18T14:21:28.732Z,101037.81
2022-12-18T14:24:13.067Z,101052.91
2022-12-18T14:26:40.260Z,101050.16
2022-12-18T14:29:25.177Z,101057.47
2022-12-18T14:32:17.569Z,101047.84
2022-12-18T14:34:47.143Z,101043.06
2022-12-18T14:37:16.316Z,101045.84
2022-12-18T14:39:55.104Z,101039.34
2022-12-18T14:42:22.073Z,101037.78
2022-12-18T14:45:13.072Z,101039.91
2022-12-18T14:47:37.613Z,101049.66
2022-12-18T14:50:14.415Z,101049.47
2022-12-18T14:52:41.504Z,101055.16
2022-12-18T14:55:18.406Z,101050.50
2022-12-18T14:57:49.569Z,101052.44
2022-12-18T15:00:22.832Z,101046.59
2022-12-18T15:02:55.939Z,101049.59
2022-12-18T15:05:28.970Z,101047.47
2022-12-18T15:08:00.491Z,101043.88
2022-12-18T15:10:30.493Z,101040.69
2022-12-18T15:13:17.501Z,101034.84
2022-12-18T15:15:49.856Z,101045.44
2022-12-18T15:18:20.436Z,101040.16
2022-12-18T15:20:51.177Z,101041.53
2022-12-18T15:23:23.125Z,101037.81
2022-12-18T15:25:58.801Z,101038.69
2022-12-18T15:28:32.144Z,101039.84
2022-12-18T15:31:29.852Z,101043.97
2022-12-18T15:34:12.583Z,101040.16
2022-12-18T15:36:39.995Z,101036.53
2022-12-18T15:39:07.088Z,101047.16
2022-12-18T15:41:36.686Z,101041.13
2022-12-18T15:44:22.589Z,101046.09
2022-12-18T15:46:50.680Z,101044.50
2022-12-18T15:49:17.580Z,101047.81
2022-12-18T15:51:44.864Z,101046.09
2022-12-18T15:54:15.865Z,101046.72
2022-12-18T15:56:44.962Z,101037.63
2022-12-18T15:59:15.626Z,101049.59
2022-12-18T16:01:46.140Z,101044.50
2022-12-18T16:04:17.205Z,101037.38
2022-12-18T16:07:13.193Z,101046.25
2022-12-18T16:09:31.344Z,101049.44
2022-12-18T16:11:58.748Z,101048.75
2022-12-18T16:14:28.817Z,101046.25
2022-12-18T16:16:58.561Z,101047.28
2022-12-18T16:19:28.026Z,101039.44
2022-12-18T16:21:58.545Z,101041.38
2022-12-18T16:24:29.443Z,101038.91
2022-12-18T16:27:00.111Z,101034.56
2022-12-18T16:29:29.566Z,101036.97
2022-12-18T16:31:56.925Z,101031.13
2022-12-18T16:34:28.733Z,101028.13
2022-12-18T16:37:01.695Z,101047.81
2022-12-18T16:39:32.267Z,101042.72
2022-12-18T16:41:59.136Z,101044.81
2022-12-18T16:44:27.685Z,101040.16
2022-12-18T16:46:54.556Z,101049.06
2022-12-18T16:49:22.038Z,101036.81
2022-12-18T16:51:50.166Z,101033.63
2022-12-18T16:54:20.033Z,101031.53
2022-12-18T16:56:47.388Z,101037.59
2022-12-18T16:59:14.161Z,101036.72
2022-12-18T17:01:41.513Z,101038.97
2022-12-18T17:04:09.662Z,101024.06
2022-12-18T17:06:41.791Z,101021.19
2022-12-18T17:09:14.621Z,101027.31
2022-12-18T17:11:41.800Z,101026.50
2022-12-18T17:14:11.074Z,101017.69
2022-12-18T17:16:37.966Z,101010.50
2022-12-18T17:19:09.776Z,101006.25
2022-12-18T17:21:40.473Z,101007.31
2022-12-18T17:24:07.994Z,101000.72
2022-12-18T17:26:37.529Z,101005.28
2022-12-18T17:29:04.413Z,101006.75
2022-12-18T17:31:32.613Z,100993.13
2022-12-18T17:34:02.438Z,100993.00
2022-12-18T17:36:31.709Z,100992.09
2022-12-18T17:39:11.041Z,101001.50
2022-12-18T17:41:44.465Z,101004.47
2022-12-18T17:44:11.423Z,101005.16
2022-12-18T17:46:38.274Z,101012.72
2022-12-18T17:49:07.499Z,101022.53
2022-12-18T17:55:20.845Z,101026.81
2022-12-18T17:57:51.982Z,101016.41
2022-12-18T18:00:39.486Z,101001.91
2022-12-18T18:12:21.763Z,100997.28
2022-12-18T18:22:23.049Z,100987.09
2022-12-18T18:25:31.325Z,100990.25
2022-12-18T18:27:58.376Z,100986.78
2022-12-18T18:30:33.407Z,100982.44
2022-12-18T18:33:02.214Z,100989.84
2022-12-18T18:35:52.809Z,100980.34
2022-12-18T18:38:16.517Z,100977.69
2022-12-18T18:40:43.380Z,100968.88
2022-12-18T18:43:10.514Z,100973.34
2022-12-18T18:45:38.802Z,100971.63
2022-12-18T18:48:12.636Z,100974.59
2022-12-18T18:50:43.551Z,100974.38
2022-12-18T18:53:10.374Z,100989.00
2022-12-18T18:55:37.235Z,100982.13
2022-12-18T18:58:04.262Z,100982.47
2022-12-18T19:00:32.888Z,100980.69
2022-12-18T19:03:01.385Z,100981.31
2022-12-18T19:05:31.105Z,100979.41
2022-12-18T19:07:58.022Z,100977.81
2022-12-18T19:10:25.119Z,100980.69
2022-12-18T19:12:52.145Z,100973.25
2022-12-18T19:15:19.193Z,100972.84
2022-12-18T19:17:47.430Z,100974.31
2022-12-18T19:20:21.581Z,100976.09
2022-12-18T19:22:55.111Z,100966.28
2022-12-18T19:25:29.928Z,100961.72
2022-12-18T19:28:06.974Z,100967.44
2022-12-18T19:30:39.108Z,100954.94
2022-12-18T19:33:26.781Z,100951.44
2022-12-18T19:35:54.642Z,100949.34
2022-12-18T19:38:21.812Z,100942.44
2022-12-18T19:40:53.155Z,100943.53
2022-12-18T19:43:20.190Z,100937.38
2022-12-18T19:45:54.935Z,100930.06
2022-12-18T19:48:21.852Z,100925.91
2022-12-18T19:50:48.848Z,100917.03
2022-12-18T19:53:17.137Z,100920.22
2022-12-18T19:55:45.861Z,100913.44
2022-12-18T19:58:15.304Z,100903.47
2022-12-18T20:00:42.426Z,100901.78
2022-12-18T20:03:25.964Z,100911.63
2022-12-18T20:06:13.641Z,100912.16
2022-12-18T20:08:42.458Z,100911.84
2022-12-18T20:11:10.616Z,100919.47
2022-12-18T20:13:40.567Z,100917.44
2022-12-18T20:16:09.298Z,100915.84
2022-12-18T20:18:37.108Z,100909.91
2022-12-18T20:21:13.841Z,100896.78
2022-12-18T20:23:57.778Z,100892.66
2022-12-18T20:26:25.043Z,100891.59
2022-12-18T20:29:22.419Z,100876.34
2022-12-18T20:32:07.640Z,100883.75
2022-12-18T20:34:50.818Z,100880.13
2022-12-18T20:37:21.431Z,100866.25
2022-12-18T20:40:42.242Z,100887.97
2022-12-18T20:43:10.336Z,100885.72
2022-12-18T20:45:39.348Z,100892.78
2022-12-18T20:48:08.421Z,100882.63
2022-12-18T20:50:35.804Z,100892.88
2022-12-18T20:53:02.769Z,100889.91
2022-12-18T20:55:31.013Z,100892.34
2022-12-18T20:57:58.371Z,100881.84
2022-12-18T21:00:25.313Z,100879.44
2022-12-18T21:02:52.406Z,100877.41
2022-12-18T21:05:24.145Z,100879.31
2022-12-18T21:07:53.959Z,100868.00
2022-12-18T21:10:40.439Z,100859.31
2022-12-18T21:13:11.665Z,100863.53
2022-12-18T21:21:26.897Z,100878.38
2022-12-18T21:24:04.223Z,100873.91
2022-12-18T21:26:31.603Z,100875.41
2022-12-18T21:29:03.185Z,100870.44
2022-12-18T21:31:38.480Z,100876.66
2022-12-18T21:34:07.081Z,100881.88
2022-12-18T21:36:35.138Z,100893.00
2022-12-18T21:39:02.422Z,100892.78
2022-12-18T21:41:29.363Z,100899.88
2022-12-18T21:43:56.299Z,100888.34
2022-12-18T21:46:24.590Z,100872.44
2022-12-18T21:48:51.493Z,100873.13
2022-12-18T21:51:18.380Z,100881.53
2022-12-18T21:53:45.258Z,100870.59
2022-12-18T21:56:15.071Z,100864.25
2022-12-18T21:58:56.769Z,100863.28
2022-12-18T22:01:26.078Z,100868.13
2022-12-18T22:04:03.706Z,100858.72
2022-12-18T22:06:30.507Z,100847.16
2022-12-18T22:08:57.565Z,100850.78
2022-12-18T22:11:24.743Z,100873.44
2022-12-18T22:13:53.473Z,100869.72
2022-12-18T22:16:20.628Z,100865.16
2022-12-18T22:18:48.984Z,100867.91
2022-12-18T22:21:29.027Z,100858.63
2022-12-18T22:23:59.776Z,100869.09
2022-12-18T22:26:33.825Z,100856.06
2022-12-18T22:29:05.096Z,100862.19
2022-12-18T22:31:31.976Z,100857.13
2022-12-18T22:34:00.975Z,100857.13
2022-12-18T22:36:55.858Z,100853.88
2022-12-18T22:39:25.963Z,100868.28
2022-12-18T22:41:56.338Z,100860.31
2022-12-18T22:44:23.254Z,100870.59
2022-12-18T22:47:05.906Z,100870.28
2022-12-18T22:49:36.648Z,100859.44
2022-12-18T22:52:05.687Z,100859.78
2022-12-18T22:54:33.421Z,100855.34
2022-12-18T22:57:01.309Z,100852.47
2022-12-18T22:59:28.891Z,100855.63
2022-12-18T23:01:59.185Z,100857.84
2022-12-18T23:04:27.380Z,100874.22
2022-12-18T23:06:57.244Z,100871.69
2022-12-18T23:09:23.997Z,100876.66
2022-12-18T23:11:51.352Z,100878.88
2022-12-18T23:14:18.173Z,100868.03
2022-12-18T23:16:45.242Z,100866.00
2022-12-18T23:19:14.171Z,100871.31
2022-12-18T23:21:41.102Z,100867.56
2022-12-18T23:24:10.334Z,100863.84
2022-12-18T23:26:37.434Z,100851.53
2022-12-18T23:29:05.713Z,100847.56
2022-12-18T23:31:35.531Z,100857.41
2022-12-18T23:34:04.149Z,100873.97
2022-12-18T23:36:35.834Z,100879.75
2022-12-18T23:39:28.071Z,100881.59
2022-12-18T23:41:56.271Z,100880.16
2022-12-18T23:44:23.507Z,100872.59
2022-12-18T23:46:50.561Z,100882.41
2022-12-18T23:49:17.627Z,100879.28
2022-12-18T23:51:44.908Z,100881.22
2022-12-18T23:54:11.978Z,100885.44
2022-12-18T23:56:40.236Z,100874.94
2022-12-18T23:59:07.358Z,100878.44
